Login to view products.  
Friday, October 20, 2017 (19:29 UTC)
Ras Al Khaimah International Airport
ICAO Code: OMRK
IATA Code: RKT
  • METAR OMRK 201900Z 25004KT CAVOK 24/16 Q1011 A2986=
  • TAF OMRK 201651Z 2018/2200 VRB02KT 8000 NSC BECMG 2107/2109 33012KT BECMG 2115/2117 VRB02KT=